KFUL/FUL METAR and TAF weather

Enter ICAO airport designator
Station Type Date Time Source
KFUL METAR 2020/04/04 09:53 UTC NOAA

KFUL 040953Z AUTO 08004KT 10SM BKN017 14/10 A2990 RMK AO2 RAB07E16 SLP125 P0000 T01390100


Station Type Date Time Source
KFUL Decoded METAR 2020/04/04 09:53 UTC NOAA

FULLERTON MUNICIPAL AIRPORT , CA, United States (KFUL) 33-52N 117-59W 35M
Apr 04, 2020 - 05:53 AM EDT / 2020.04.04 0953 UTC
Wind: from the E (080 degrees) at 5 MPH (4 KT):0
Visibility: 10 mile(s):0
Sky conditions: mostly cloudy
Precipitation last hour: A trace
Temperature: 57.0 F (13.9 C)
Dew Point: 50.0 F (10.0 C)
Relative Humidity: 77%
Pressure (altimeter): 29.9 in. Hg (1012 hPa)
ob: KFUL 040953Z AUTO 08004KT 10SM BKN017 14/10 A2990 RMK AO2 RAB07E16 SLP125 P0000 T01390100
cycle: 10

Station Type Date Time Source
KFUL TAF UTC NOAA

Error!

Example: see airport list